Relevés horaires Florennes (Belgique)


Relevés horaires à Florennes - Mardi 28 Avr. 2026
Heure UTC1 Température [°C] Vent [km/h] Hum. [%] Pres.4 [hPa] Visi. [Km] Nébu. [octa] Préc.5 [mm] Cond.
2m. Res. Ros. Dir.2 Vit. Moy. Raf.3
23:00 10.7 10 2.7 NE 7.4 -- 13.0 58 1020.5(0.8/3h) >70 -- -- --
22:00 11.5 10.5 2.7 NE 9.3 -- 14.8 55 1020.1(1.4/3h) 25 1/8 -- --
21:00 12.7 11.7 2.7 NE 11.1 -- 20.4 51 1019.7(1.7/3h) 25 1/8 -- --
20:00 13.8 13 2.7 NE 11.1 -- 20.4 47 1019.2(1.7/3h) 25 1/8 -- --
19:00 14.9 14.4 3.2 NE 11.1 -- 20.4 45 1018.2(1.0/3h) 25 1/8 -- --
18:00 16.5 15.9 3.7 NE 14.8 -- 25.9 42 1017.5(0.3/3h) 25 1/8 -- --
17:00 18.1 17.9 3.5 NE 14.8 -- 24.1 38 1017(-0.3/3h) 25 1/8 -- --
16:00 18.7 18.7 4.7 NE 13.0 -- 20.4 40 1016.6(-0.9/3h) 25 1/8 -- --
15:00 18.3 18 4.3 NE 16.7 -- 25.9 39 1016.8(-0.8/3h) 25 2/8 -- --
14:00 17.9 17.7 5.6 NNE 14.8 -- 25.9 44 1017.2(-0.6/3h) 25 2/8 -- --
13:00 16.7 16.2 5.3 NE 14.8 -- 24.1 47 1017.7(-0.6/3h) 25 2/8 -- --
12:00 16.1 15.5 4.1 NNE 14.8 -- 22.2 45 1018(-0.8/3h) 25 2/8 -- --
11:00 16.7 16.3 4.6 NE 13.0 -- 20.4 45 1018.1(-0.4/3h) 25 2/8 -- --
10:00 14.2 13.7 5.5 NNE 9.3 -- 14.8 56 1018.7(0.2/3h) 25 6/8 -- --
09:00 11.6 10.7 4.5 N 9.3 -- 11.1 62 1019.2(0.4/3h) 25 6/8 -- --
08:00 9.8 9.4 3.8 NNE 5.6 -- 11.1 66 1019.3(0.5/3h) 25 5/8 -- --
07:00 9.1 8.1 3.0 NNE 7.4 -- 11.1 66 1019.2(0.2/3h) 25 5/8 -- --
06:00 7.0 7.0 2.4 NE 3.7 -- 11.1 72 1019.3(-0.1/3h) 25 6/8 -- --
05:00 6.3 5.3 1.9 NE 5.6 -- 11.1 73 1019.2(-0.6/3h) >70 -- -- --
04:00 7.1 6.3 1.8 NE 5.6 -- 11.1 69 1019.2(-0.6/3h) >70 -- -- --
03:00 7.7 6.9 1.9 NE 5.6 -- 11.1 67 1019.5(-0.5/3h) >70 -- -- --
02:00 8.2 7.5 1.8 NNE 5.6 -- 7.4 64 1019.6(-0.3/3h) >70 -- -- --
01:00 8.0 8.0 1.5 NE 3.7 -- 9.3 63 1019.7(-0.2/3h) >70 -- -- --
00:00 8.0 8.0 1.4 NE 3.7 -- 9.3 63 1020.1(0.0/3h) >70 -- -- --

1 Coordinated Universal Time. Actuellement il est 20:00 locale et 18:00 UTC.

2 Le vent souffle depuis la direction indiquée vers la direction oposée.

3 Les rafales max. sont disponible 40 min après l'heure du relevé.

4 Pour les stations d'altitude (plus de 600m) le géopotentiel du niveau le plus proche de la pression obligatoire est indiqué.

5 Les stations disposant d'un diffuseur peuvent indiquer "trace". Cela signifie que des précipitations ont touchés le sol mais que la quantité est inférieure à 0.1 mm.

Récapitulatif de la journée
Température [°C] Vent [km/h] Ensoleillement4 [h] Precipitations totale5 [mm] Pression [Hpa]
Min1 Max.2 Moy.3 Max. Min Max.
6.1 19.1 0 25.9 0 h 0 min 0 1016.6 1020.5

1 Température minimale relevée entre 18:00 UTC la veille et 18:00 UTC le jour donné.

2 Température maximale relevée entre 06:00 UTC le jour donné et 06:00 UTC le lendemain.

3 Vent moyen de la journée basé sur les relevés horaires.

4 Ensoleillement en heures relevé entre 06:00 UTC la veille et 06:00 UTC le jour donné.

5 Précipitations totales tombées entre 06:00 UTC la jour donné et 06:00 UTC le lendemain.

Graphiques horaires